Time;durP1;ratioP1;P1;durP2;ratioP2;P2;SDS_P1;SDS_P2;PMS_P1;PMS_P2;Temp;Humidity;BMP_temperature;BMP_pressure;BME280_temperature;BME280_humidity;BME280_pressure;Samples;Min_cycle;Max_cycle;Signal;HPM_P1;HPM_P2
2023/03/15 00:01:23;;;;;;;8.45;2.17;;;25.60;54.10;;;;;;5129964;27;20192;-65
2023/03/15 00:03:49;;;;;;;17.27;2.40;;;25.50;54.10;;;;;;5131391;27;20428;-62
2023/03/15 00:06:16;;;;;;;10.10;2.35;;;25.50;53.70;;;;;;5128903;27;20066;-65
2023/03/15 00:08:46;;;;;;;23.13;3.35;;;25.40;54.40;;;;;;5130531;27;20069;-65
2023/03/15 00:11:14;;;;;;;15.07;2.75;;;25.30;55.70;;;;;;5131536;27;20064;-60
2023/03/15 00:13:40;;;;;;;12.05;2.47;;;25.10;56.60;;;;;;5127133;27;20433;-62
2023/03/15 00:16:07;;;;;;;17.20;2.63;;;24.90;56.90;;;;;;5133881;27;20086;-65
2023/03/15 00:18:34;;;;;;;13.23;1.85;;;24.80;58.10;;;;;;5125465;27;20571;-63
2023/03/15 00:21:01;;;;;;;33.05;2.72;;;24.60;58.70;;;;;;5127539;27;20094;-64
2023/03/15 00:23:27;;;;;;;19.38;2.63;;;24.60;58.40;;;;;;5127885;27;20063;-66
2023/03/15 00:25:54;;;;;;;15.90;2.60;;;24.60;58.40;;;;;;5130380;27;20066;-64
2023/03/15 00:28:21;;;;;;;16.63;3.10;;;24.50;58.50;;;;;;5113806;27;20530;-67
2023/03/15 00:30:47;;;;;;;21.92;3.38;;;24.50;59.20;;;;;;5129167;27;20125;-64
2023/03/15 00:33:15;;;;;;;14.50;2.63;;;24.50;59.10;;;;;;5128958;27;20073;-65
2023/03/15 00:35:44;;;;;;;15.50;2.42;;;24.50;58.90;;;;;;5130423;27;20083;-64
2023/03/15 00:38:12;;;;;;;13.43;2.22;;;24.40;58.60;;;;;;5131906;27;20112;-63
2023/03/15 00:40:39;;;;;;;21.50;3.20;;;24.40;58.50;;;;;;5130549;27;20102;-64
2023/03/15 00:43:05;;;;;;;14.70;2.50;;;24.40;58.50;;;;;;5127470;27;20062;-63
2023/03/15 00:45:32;;;;;;;12.32;2.50;;;24.30;58.30;;;;;;5128466;27;20139;-62
2023/03/15 00:47:58;;;;;;;15.52;2.42;;;24.30;58.80;;;;;;5128692;27;20148;-58
2023/03/15 00:50:25;;;;;;;15.73;2.55;;;24.30;58.80;;;;;;5127957;27;20074;-64
2023/03/15 00:52:52;;;;;;;15.98;2.60;;;24.20;59.60;;;;;;5130117;27;20069;-65
2023/03/15 00:55:20;;;;;;;11.32;2.55;;;24.10;59.20;;;;;;5129457;27;20161;-61
2023/03/15 00:57:46;;;;;;;14.88;2.55;;;24.10;59.50;;;;;;5112084;27;20488;-63
2023/03/15 01:00:18;;;;;;;22.90;3.10;;;24.00;59.30;;;;;;5128233;27;20062;-66
2023/03/15 01:02:46;;;;;;;16.40;2.85;;;24.00;59.00;;;;;;5128828;27;20070;-65
2023/03/15 01:05:13;;;;;;;15.05;2.33;;;23.90;59.20;;;;;;5124222;27;20165;-65
2023/03/15 01:07:39;;;;;;;16.00;2.28;;;24.00;58.90;;;;;;5128810;27;20554;-62
2023/03/15 01:10:06;;;;;;;10.15;2.47;;;24.00;59.30;;;;;;5125818;27;20102;-62
2023/03/15 01:12:34;;;;;;;24.55;2.78;;;24.00;58.80;;;;;;5129801;27;20074;-61
2023/03/15 01:15:02;;;;;;;13.10;2.35;;;23.90;58.90;;;;;;5128697;27;20078;-61
2023/03/15 01:17:29;;;;;;;15.60;2.25;;;23.80;59.00;;;;;;5124399;27;20074;-63
2023/03/15 01:19:56;;;;;;;27.05;2.97;;;23.60;59.30;;;;;;5124438;27;20086;-62
2023/03/15 01:22:23;;;;;;;15.23;1.77;;;23.60;59.70;;;;;;5127881;27;20078;-62
2023/03/15 01:24:49;;;;;;;13.35;2.30;;;23.60;59.80;;;;;;5124807;27;20104;-63
2023/03/15 01:27:16;;;;;;;13.30;2.58;;;23.60;59.80;;;;;;5129049;27;20066;-61
2023/03/15 01:29:42;;;;;;;24.70;2.40;;;23.50;59.60;;;;;;5125700;27;20077;-61
2023/03/15 01:32:09;;;;;;;13.00;2.08;;;23.50;60.10;;;;;;5124736;27;20094;-60
2023/03/15 01:34:35;;;;;;;20.75;1.92;;;23.40;60.30;;;;;;5129097;27;20468;-65
2023/03/15 01:37:03;;;;;;;13.80;2.40;;;23.30;61.20;;;;;;5126587;27;20111;-62
2023/03/15 01:39:30;;;;;;;7.72;1.80;;;23.30;61.60;;;;;;5124953;27;20078;-64
2023/03/15 01:41:57;;;;;;;12.38;1.95;;;23.20;61.30;;;;;;5127022;27;20067;-62
2023/03/15 01:44:23;;;;;;;14.18;2.65;;;23.20;61.50;;;;;;5127713;27;20089;-63
2023/03/15 01:46:49;;;;;;;19.50;2.38;;;23.10;61.40;;;;;;5128321;27;20081;-62
2023/03/15 01:49:28;;;;;;;20.85;2.28;;;23.20;61.50;;;;;;5127199;27;20539;-61
2023/03/15 01:52:14;;;;;;;10.57;1.98;;;23.10;61.70;;;;;;5127593;27;20121;-65
2023/03/15 01:54:58;;;;;;;17.05;2.63;;;23.00;62.00;;;;;;5128884;27;20598;-62
2023/03/15 01:57:36;;;;;;;17.60;2.75;;;22.90;61.70;;;;;;5128372;27;20081;-61
2023/03/15 02:00:10;;;;;;;11.75;2.00;;;22.90;62.00;;;;;;5129348;27;20059;-64
2023/03/15 02:02:46;;;;;;;16.48;2.58;;;22.90;62.10;;;;;;5128945;27;20175;-62
2023/03/15 02:05:22;;;;;;;21.52;3.20;;;22.90;62.20;;;;;;5128621;27;20081;-65
2023/03/15 02:07:53;;;;;;;16.02;2.92;;;22.90;62.20;;;;;;5128146;27;20078;-62
2023/03/15 02:10:28;;;;;;;18.45;5.30;;;23.00;62.50;;;;;;5127687;27;20081;-63
2023/03/15 02:12:57;;;;;;;21.55;5.90;;;22.90;62.00;;;;;;5126953;27;20437;-65
2023/03/15 02:15:23;;;;;;;15.95;5.50;;;22.90;61.70;;;;;;5128327;27;20083;-64
2023/03/15 02:17:50;;;;;;;30.10;5.82;;;22.90;62.10;;;;;;5127201;27;20149;-63
2023/03/15 02:20:26;;;;;;;19.38;5.18;;;22.90;62.00;;;;;;5124783;27;20165;-63
2023/03/15 02:22:55;;;;;;;28.48;5.78;;;22.90;61.50;;;;;;5128332;28;20079;-62
2023/03/15 02:25:33;;;;;;;29.17;7.13;;;22.90;62.20;;;;;;5128152;27;20081;-63
2023/03/15 02:28:02;;;;;;;25.73;5.93;;;22.90;61.20;;;;;;5126697;28;20078;-63
2023/03/15 02:30:28;;;;;;;18.02;6.30;;;22.90;61.60;;;;;;5128036;27;20079;-62
2023/03/15 02:32:56;;;;;;;35.05;6.30;;;22.90;61.20;;;;;;5127858;28;20119;-64
2023/03/15 02:35:27;;;;;;;24.40;4.40;;;22.90;61.20;;;;;;5128428;27;20140;-66
2023/03/15 02:37:53;;;;;;;27.00;7.50;;;22.90;61.60;;;;;;5128557;27;20161;-67
2023/03/15 02:40:22;;;;;;;34.80;9.02;;;22.80;61.30;;;;;;5132234;27;20110;-61
2023/03/15 02:42:53;;;;;;;27.25;6.15;;;22.80;61.20;;;;;;5132377;27;20557;-66
2023/03/15 02:45:20;;;;;;;18.73;4.25;;;22.80;60.90;;;;;;5132826;27;20081;-64
2023/03/15 02:47:48;;;;;;;22.08;6.15;;;22.80;60.70;;;;;;5128336;27;20147;-63
2023/03/15 02:50:15;;;;;;;23.92;5.82;;;22.80;61.20;;;;;;5129577;27;20102;-68
2023/03/15 02:52:41;;;;;;;24.83;5.57;;;22.80;61.30;;;;;;5131476;27;20497;-63
2023/03/15 02:55:08;;;;;;;24.65;4.45;;;22.80;61.20;;;;;;5129603;27;20098;-64
2023/03/15 02:57:35;;;;;;;19.35;4.38;;;22.90;61.40;;;;;;5131106;27;20071;-64
2023/03/15 03:00:12;;;;;;;16.63;3.20;;;22.80;61.00;;;;;;5129642;27;20077;-65
2023/03/15 03:02:40;;;;;;;19.13;4.30;;;22.80;61.30;;;;;;5131593;27;20066;-64
2023/03/15 03:05:07;;;;;;;26.63;4.28;;;22.90;61.30;;;;;;5127911;27;20081;-65
2023/03/15 03:07:35;;;;;;;18.73;3.60;;;22.80;61.40;;;;;;5129455;27;20066;-63
2023/03/15 03:10:02;;;;;;;18.92;3.90;;;22.80;61.10;;;;;;5128392;27;20106;-66
2023/03/15 03:12:29;;;;;;;27.63;4.45;;;22.80;61.30;;;;;;5130839;27;20081;-68
2023/03/15 03:14:55;;;;;;;26.15;3.63;;;22.90;61.80;;;;;;5129761;27;20205;-63
2023/03/15 03:17:22;;;;;;;26.20;4.25;;;22.80;61.60;;;;;;5128770;27;20141;-65
2023/03/15 03:19:50;;;;;;;14.77;4.65;;;22.80;61.50;;;;;;5126068;27;20622;-64
2023/03/15 03:22:17;;;;;;;24.60;5.57;;;22.70;61.20;;;;;;5128310;27;20063;-64
2023/03/15 03:24:44;;;;;;;29.73;5.10;;;22.70;60.90;;;;;;5126746;27;20567;-63
2023/03/15 03:27:15;;;;;;;19.92;4.35;;;22.80;62.40;;;;;;5128119;27;20126;-61
2023/03/15 03:29:41;;;;;;;29.85;4.60;;;22.70;61.50;;;;;;5131583;27;20086;-62
2023/03/15 03:32:08;;;;;;;38.45;9.15;;;22.80;61.70;;;;;;5129615;27;20070;-61
2023/03/15 03:34:35;;;;;;;36.60;6.50;;;22.70;62.00;;;;;;5129276;27;20087;-64
2023/03/15 03:37:01;;;;;;;34.88;6.47;;;22.70;62.20;;;;;;5125146;27;20078;-68
2023/03/15 03:39:27;;;;;;;19.67;4.45;;;22.70;62.00;;;;;;5127985;27;20106;-65
2023/03/15 03:41:54;;;;;;;27.40;6.50;;;22.60;61.70;;;;;;5128472;27;20067;-65
2023/03/15 03:44:20;;;;;;;27.92;10.50;;;22.60;62.30;;;;;;5129116;27;20541;-66
2023/03/15 03:46:47;;;;;;;28.90;10.48;;;22.70;61.90;;;;;;5129972;27;20074;-64
2023/03/15 03:49:13;;;;;;;29.83;7.07;;;22.70;62.10;;;;;;5129651;27;20588;-65
2023/03/15 03:51:40;;;;;;;32.55;6.43;;;22.60;62.20;;;;;;5132862;27;20106;-62
2023/03/15 03:54:06;;;;;;;26.17;5.38;;;22.60;62.10;;;;;;5130510;27;20454;-66
2023/03/15 03:56:33;;;;;;;22.10;4.80;;;22.70;62.20;;;;;;5130759;27;20071;-67
2023/03/15 03:58:59;;;;;;;28.00;4.07;;;22.70;63.20;;;;;;5126059;27;20134;-61
2023/03/15 04:01:25;;;;;;;19.73;4.20;;;22.60;63.40;;;;;;5129596;27;20073;-63
2023/03/15 04:03:52;;;;;;;24.10;4.50;;;22.60;63.60;;;;;;5126327;27;20135;-64
2023/03/15 04:06:18;;;;;;;21.45;4.32;;;22.60;62.80;;;;;;5129477;27;20077;-63
2023/03/15 04:08:45;;;;;;;29.33;4.32;;;22.60;63.20;;;;;;5129242;27;20191;-64
2023/03/15 04:11:16;;;;;;;26.60;4.32;;;22.60;62.60;;;;;;5130592;27;20071;-62
2023/03/15 04:13:46;;;;;;;28.02;4.85;;;22.50;62.50;;;;;;5129837;27;20149;-68
2023/03/15 04:16:13;;;;;;;28.35;5.18;;;22.50;62.80;;;;;;5129945;27;20251;-67
2023/03/15 04:18:40;;;;;;;36.58;4.65;;;22.40;62.60;;;;;;5129174;27;20410;-67
2023/03/15 04:21:09;;;;;;;23.50;4.80;;;22.30;62.10;;;;;;5130326;27;20082;-69
2023/03/15 04:23:36;;;;;;;17.85;4.35;;;22.40;62.70;;;;;;5125331;27;20118;-66
2023/03/15 04:26:04;;;;;;;24.38;4.85;;;22.40;62.50;;;;;;5129976;27;20153;-68
2023/03/15 04:28:31;;;;;;;20.02;4.80;;;22.50;62.60;;;;;;5129126;27;20102;-65
2023/03/15 04:31:00;;;;;;;27.95;5.95;;;22.50;62.40;;;;;;5128338;27;20227;-66
2023/03/15 04:33:30;;;;;;;28.55;6.28;;;22.50;62.60;;;;;;5129886;27;20079;-66
2023/03/15 04:35:58;;;;;;;22.80;5.72;;;22.40;61.80;;;;;;5128650;27;20723;-66
2023/03/15 04:38:25;;;;;;;29.10;5.65;;;22.40;61.80;;;;;;5128681;27;20074;-67
2023/03/15 04:40:55;;;;;;;27.70;4.85;;;22.40;61.80;;;;;;5131294;27;20137;-67
2023/03/15 04:43:23;;;;;;;26.02;5.40;;;22.40;62.60;;;;;;5129468;27;20456;-66
2023/03/15 04:45:50;;;;;;;31.05;4.85;;;22.40;61.30;;;;;;5129240;27;20122;-67
2023/03/15 04:48:17;;;;;;;26.92;4.97;;;22.40;61.70;;;;;;5129186;27;20079;-65
2023/03/15 04:50:43;;;;;;;29.95;5.05;;;22.40;62.40;;;;;;5130538;27;20090;-63
2023/03/15 04:53:10;;;;;;;30.70;4.88;;;22.30;62.30;;;;;;5130820;27;20127;-65
2023/03/15 04:55:36;;;;;;;20.13;4.63;;;22.30;62.10;;;;;;5129032;27;20427;-65
2023/03/15 04:58:02;;;;;;;31.90;5.03;;;22.40;62.30;;;;;;5130235;27;20074;-65
2023/03/15 05:00:29;;;;;;;35.75;5.22;;;22.30;62.40;;;;;;5127510;27;20465;-64
2023/03/15 05:02:55;;;;;;;19.60;4.03;;;22.30;62.50;;;;;;5129345;27;20074;-63
2023/03/15 05:05:23;;;;;;;23.90;5.20;;;22.70;62.90;;;;;;5129158;27;20136;-62
2023/03/15 05:07:49;;;;;;;29.02;4.60;;;22.80;61.50;;;;;;5128427;27;20073;-63
2023/03/15 05:10:16;;;;;;;34.20;4.68;;;23.00;60.90;;;;;;5129074;27;20542;-62
2023/03/15 05:12:42;;;;;;;20.98;4.20;;;23.20;61.10;;;;;;5128974;27;20078;-65
2023/03/15 05:15:09;;;;;;;19.38;4.15;;;23.30;61.30;;;;;;5127393;27;20171;-64
2023/03/15 05:17:36;;;;;;;16.75;4.07;;;23.30;60.70;;;;;;5127230;27;20120;-63
2023/03/15 05:20:10;;;;;;;19.23;4.18;;;23.40;59.90;;;;;;5126479;27;20082;-62
2023/03/15 05:22:38;;;;;;;26.90;4.15;;;23.40;59.80;;;;;;5129655;27;20054;-64
2023/03/15 05:25:05;;;;;;;21.38;3.85;;;23.40;59.70;;;;;;5126170;27;20078;-63
2023/03/15 05:27:33;;;;;;;21.30;3.70;;;23.30;59.70;;;;;;5128245;27;20073;-64
2023/03/15 05:30:03;;;;;;;17.50;3.42;;;23.30;60.30;;;;;;5128107;27;20075;-63
2023/03/15 05:32:33;;;;;;;24.90;3.10;;;23.30;61.40;;;;;;5129011;27;20073;-66
2023/03/15 05:35:03;;;;;;;11.15;2.58;;;23.50;59.50;;;;;;5128437;27;20087;-66
2023/03/15 05:37:31;;;;;;;13.77;2.58;;;23.40;59.40;;;;;;5128361;27;20478;-64
2023/03/15 05:39:58;;;;;;;15.82;3.20;;;23.30;58.90;;;;;;5128091;27;20102;-65
2023/03/15 05:42:25;;;;;;;12.25;3.08;;;23.30;59.70;;;;;;5129593;27;20070;-63
2023/03/15 05:44:52;;;;;;;20.58;4.55;;;23.40;59.70;;;;;;5129249;27;20081;-66
2023/03/15 05:47:19;;;;;;;16.25;3.80;;;23.50;58.70;;;;;;5128036;27;20116;-65
2023/03/15 05:49:46;;;;;;;9.85;3.65;;;23.50;58.10;;;;;;5128614;27;20077;-66
2023/03/15 05:52:12;;;;;;;15.55;4.68;;;23.40;58.40;;;;;;5129868;27;20126;-62
2023/03/15 05:54:39;;;;;;;11.35;3.28;;;23.30;59.10;;;;;;5129839;27;20097;-62
2023/03/15 05:57:05;;;;;;;14.90;3.85;;;23.40;58.40;;;;;;5127402;27;20534;-62
2023/03/15 05:59:32;;;;;;;18.10;3.42;;;23.30;58.80;;;;;;5128251;27;20949;-64
2023/03/15 06:01:58;;;;;;;20.95;8.80;;;23.10;58.90;;;;;;5110175;27;20482;-62
2023/03/15 06:04:25;;;;;;;10.60;2.70;;;23.10;59.40;;;;;;5105144;27;20734;-65
2023/03/15 06:06:52;;;;;;;14.68;3.42;;;23.00;59.30;;;;;;5134068;27;20063;-63
2023/03/15 06:09:18;;;;;;;16.83;3.47;;;23.00;60.20;;;;;;5127604;27;20070;-63
2023/03/15 06:11:45;;;;;;;13.85;2.80;;;23.00;60.30;;;;;;5110351;27;20166;-62
2023/03/15 06:14:11;;;;;;;20.10;3.28;;;22.90;59.20;;;;;;5129315;27;20921;-63
2023/03/15 06:16:38;;;;;;;20.23;2.95;;;23.00;60.60;;;;;;5127469;27;20067;-64
2023/03/15 06:19:04;;;;;;;19.92;2.85;;;23.00;61.20;;;;;;5125511;28;20526;-64
2023/03/15 06:21:31;;;;;;;17.67;2.90;;;22.90;59.90;;;;;;5128185;27;20124;-64
2023/03/15 06:23:57;;;;;;;14.55;2.90;;;22.90;59.90;;;;;;5129363;27;20533;-65
2023/03/15 06:26:24;;;;;;;13.50;2.60;;;22.90;60.40;;;;;;5125322;27;20098;-66
2023/03/15 06:28:50;;;;;;;13.52;2.65;;;22.90;59.90;;;;;;5110185;28;20166;-64
2023/03/15 06:31:17;;;;;;;20.92;2.50;;;22.80;59.80;;;;;;5127698;27;20112;-64
2023/03/15 06:33:43;;;;;;;17.98;2.70;;;22.80;60.50;;;;;;5126554;27;20110;-65
2023/03/15 06:36:10;;;;;;;15.70;2.75;;;22.80;60.50;;;;;;5124538;27;20090;-64
2023/03/15 06:38:36;;;;;;;15.13;2.88;;;22.70;60.60;;;;;;5127988;27;20083;-62
2023/03/15 06:41:04;;;;;;;21.67;3.28;;;22.80;62.50;;;;;;5125546;27;20153;-64
2023/03/15 06:43:31;;;;;;;15.63;3.67;;;22.70;61.50;;;;;;5130693;27;20086;-64
2023/03/15 06:45:58;;;;;;;22.85;3.38;;;22.60;60.50;;;;;;5128111;27;20069;-64
2023/03/15 06:48:26;;;;;;;14.98;3.50;;;22.50;60.60;;;;;;5125387;27;20542;-61
2023/03/15 06:50:53;;;;;;;24.58;4.28;;;22.50;60.00;;;;;;5126950;27;20104;-60
2023/03/15 06:53:19;;;;;;;27.63;3.83;;;22.50;61.70;;;;;;5128387;27;20157;-63
2023/03/15 06:55:47;;;;;;;26.27;13.70;;;22.50;62.50;;;;;;5122349;27;20098;-61
2023/03/15 06:58:13;;;;;;;34.92;15.25;;;22.50;63.00;;;;;;5127261;27;20115;-65
2023/03/15 07:00:41;;;;;;;30.20;15.23;;;22.40;62.70;;;;;;5126703;27;20123;-63
2023/03/15 07:03:07;;;;;;;18.75;4.25;;;22.40;61.60;;;;;;5127602;27;20067;-61
2023/03/15 07:05:33;;;;;;;19.08;4.32;;;22.30;61.80;;;;;;5124845;28;20120;-58
2023/03/15 07:08:00;;;;;;;12.35;3.80;;;22.30;61.80;;;;;;5126370;27;20074;-62
2023/03/15 07:10:26;;;;;;;20.08;4.03;;;22.20;61.10;;;;;;5126758;28;20074;-59
2023/03/15 07:12:53;;;;;;;37.53;5.40;;;22.20;61.70;;;;;;5126851;27;20100;-61
2023/03/15 07:15:19;;;;;;;18.25;3.67;;;22.20;61.80;;;;;;5130155;27;20121;-62
2023/03/15 07:17:46;;;;;;;19.65;3.70;;;22.10;62.20;;;;;;5126935;27;20166;-63
2023/03/15 07:20:12;;;;;;;46.15;5.32;;;22.00;62.40;;;;;;5125449;27;20082;-63
2023/03/15 07:22:38;;;;;;;54.00;5.07;;;22.10;63.00;;;;;;5108215;28;20082;-64
2023/03/15 07:25:06;;;;;;;24.77;3.40;;;22.10;63.30;;;;;;5126954;27;20071;-60
2023/03/15 07:27:32;;;;;;;18.17;3.42;;;22.10;62.20;;;;;;5128660;27;20063;-62
2023/03/15 07:29:59;;;;;;;21.00;3.63;;;22.00;62.70;;;;;;5130678;27;20074;-62
2023/03/15 07:32:26;;;;;;;13.07;3.22;;;22.00;62.80;;;;;;5131254;27;20562;-63
2023/03/15 07:34:56;;;;;;;19.20;3.58;;;22.10;64.20;;;;;;5133190;27;20093;-63
2023/03/15 07:37:23;;;;;;;13.32;2.95;;;22.10;69.60;;;;;;5130751;27;20074;-62
2023/03/15 07:39:49;;;;;;;19.08;3.22;;;22.00;70.30;;;;;;5129459;27;20118;-60
2023/03/15 07:42:16;;;;;;;16.27;3.22;;;21.70;70.90;;;;;;5129849;27;20067;-59
2023/03/15 07:44:42;;;;;;;12.30;2.63;;;21.20;73.10;;;;;;5132088;27;20070;-60
2023/03/15 07:47:09;;;;;;;14.15;2.65;;;20.90;75.10;;;;;;5129964;27;20494;-61
2023/03/15 07:49:35;;;;;;;12.93;2.42;;;21.00;75.90;;;;;;5128740;27;20105;-61
2023/03/15 07:52:02;;;;;;;13.23;2.53;;;20.90;77.20;;;;;;5130228;27;20073;-60
2023/03/15 07:54:30;;;;;;;18.25;2.80;;;20.90;77.40;;;;;;5130698;27;20135;-62
2023/03/15 07:56:56;;;;;;;15.35;2.13;;;21.00;80.00;;;;;;5131141;27;20073;-61
2023/03/15 07:59:23;;;;;;;15.82;2.17;;;20.90;78.90;;;;;;5130322;27;20073;-62
2023/03/15 08:01:50;;;;;;;18.83;2.00;;;20.80;76.50;;;;;;5131200;27;20078;-57
2023/03/15 08:04:16;;;;;;;16.35;2.35;;;20.60;78.30;;;;;;5135990;27;20106;-61
2023/03/15 08:06:43;;;;;;;10.95;2.05;;;20.70;80.40;;;;;;5129397;27;20082;-59
2023/03/15 08:09:10;;;;;;;11.30;2.63;;;20.70;79.10;;;;;;5130880;27;20157;-61
2023/03/15 08:11:37;;;;;;;9.68;2.05;;;20.50;78.30;;;;;;5130141;27;20478;-63
2023/03/15 08:14:03;;;;;;;9.73;2.15;;;20.50;79.00;;;;;;5129251;27;20552;-61
2023/03/15 08:16:30;;;;;;;7.57;1.85;;;20.60;80.90;;;;;;5129822;27;20090;-63
2023/03/15 08:18:56;;;;;;;9.95;2.17;;;20.60;80.20;;;;;;5132359;27;20186;-60
2023/03/15 08:21:22;;;;;;;9.52;2.35;;;20.50;79.50;;;;;;5131017;27;20174;-59
2023/03/15 08:23:49;;;;;;;15.27;2.72;;;20.40;78.60;;;;;;5129051;27;20066;-62
2023/03/15 08:26:15;;;;;;;10.63;3.42;;;20.50;79.40;;;;;;5127843;27;20136;-62
2023/03/15 08:28:41;;;;;;;12.10;2.45;;;20.50;77.80;;;;;;5127116;27;20070;-61
2023/03/15 08:31:09;;;;;;;26.80;2.55;;;20.50;78.30;;;;;;5129029;27;20071;-61
2023/03/15 08:33:35;;;;;;;26.33;10.88;;;20.60;78.70;;;;;;5129418;27;20104;-60
2023/03/15 08:36:02;;;;;;;36.95;22.83;;;20.60;76.90;;;;;;5127807;27;20165;-62
2023/03/15 08:38:28;;;;;;;15.40;2.22;;;20.60;78.30;;;;;;5129733;27;20102;-60
2023/03/15 08:40:58;;;;;;;17.48;2.42;;;20.60;78.60;;;;;;5130667;27;20588;-65
2023/03/15 08:43:24;;;;;;;14.38;2.70;;;20.60;76.40;;;;;;5120431;27;20070;-61
2023/03/15 08:45:51;;;;;;;8.05;2.35;;;20.50;75.30;;;;;;5130848;27;20165;-64
2023/03/15 08:48:17;;;;;;;6.75;1.95;;;20.50;76.40;;;;;;5130155;27;20162;-61
2023/03/15 08:50:44;;;;;;;5.15;2.38;;;20.50;76.80;;;;;;5128871;27;20074;-61
2023/03/15 08:53:10;;;;;;;7.75;2.17;;;20.50;76.90;;;;;;5133094;27;20161;-61
2023/03/15 08:55:37;;;;;;;12.27;2.50;;;20.50;76.50;;;;;;5129129;27;20083;-61
2023/03/15 08:58:04;;;;;;;7.10;2.28;;;20.50;77.00;;;;;;5127081;27;20091;-61
2023/03/15 09:00:31;;;;;;;14.55;2.30;;;20.60;76.90;;;;;;5128013;27;20494;-61
2023/03/15 09:02:58;;;;;;;9.80;2.17;;;20.50;77.10;;;;;;5130715;27;20965;-59
2023/03/15 09:05:25;;;;;;;11.55;2.70;;;20.40;80.20;;;;;;5129293;27;20094;-61
2023/03/15 09:07:52;;;;;;;12.63;2.22;;;20.30;81.50;;;;;;5131420;27;20156;-61
2023/03/15 09:10:19;;;;;;;8.10;2.15;;;20.20;82.40;;;;;;5128970;27;20073;-60
2023/03/15 09:12:48;;;;;;;10.52;3.08;;;20.20;83.60;;;;;;5128862;27;20078;-58
2023/03/15 09:15:15;;;;;;;15.43;2.90;;;20.20;84.70;;;;;;5129648;27;20088;-60
2023/03/15 09:17:43;;;;;;;18.30;2.75;;;20.20;83.80;;;;;;5129668;27;20119;-59
2023/03/15 09:20:17;;;;;;;10.80;2.20;;;20.10;84.10;;;;;;5129079;27;20149;-61
2023/03/15 09:22:53;;;;;;;15.43;2.92;;;20.00;85.90;;;;;;5129530;27;20078;-61
2023/03/15 09:25:20;;;;;;;10.93;3.03;;;20.00;88.70;;;;;;5129777;27;20534;-59
2023/03/15 09:27:47;;;;;;;12.18;2.70;;;20.00;90.80;;;;;;5125471;27;20074;-63
2023/03/15 09:30:14;;;;;;;21.98;3.70;;;19.90;91.40;;;;;;5128453;27;20073;-60
2023/03/15 09:32:42;;;;;;;17.65;3.95;;;19.80;92.60;;;;;;5129781;27;20128;-60
2023/03/15 09:35:13;;;;;;;17.40;3.22;;;19.80;94.60;;;;;;5127830;27;20086;-61
2023/03/15 09:37:41;;;;;;;23.48;4.25;;;19.70;96.50;;;;;;5130601;27;20066;-60
2023/03/15 09:40:33;;;;;;;16.23;3.33;;;19.70;98.50;;;;;;5126940;27;20507;-60
2023/03/15 09:43:06;;;;;;;19.63;5.10;;;19.60;99.20;;;;;;5127090;27;20087;-61
2023/03/15 09:45:56;;;;;;;32.15;5.22;;;19.50;99.90;;;;;;5128041;27;20530;-60
2023/03/15 09:48:41;;;;;;;33.22;5.95;;;19.40;99.90;;;;;;5126632;27;20094;-60
2023/03/15 09:51:26;;;;;;;29.27;5.85;;;19.40;99.90;;;;;;5128427;27;20153;-58
2023/03/15 09:53:56;;;;;;;45.72;8.48;;;19.20;99.90;;;;;;5130014;27;21416;-61
2023/03/15 09:56:24;;;;;;;40.70;8.80;;;19.20;99.90;;;;;;5127529;27;20456;-60
2023/03/15 09:58:56;;;;;;;43.30;8.38;;;19.10;99.90;;;;;;5129457;27;20198;-60
2023/03/15 10:01:31;;;;;;;30.25;6.95;;;19.00;99.90;;;;;;5128035;27;20071;-60
2023/03/15 10:03:58;;;;;;;41.42;7.65;;;19.00;99.90;;;;;;5128346;27;20119;-61
2023/03/15 10:06:34;;;;;;;40.00;9.60;;;18.80;99.90;;;;;;5127082;27;20089;-62
2023/03/15 10:09:14;;;;;;;30.60;10.83;;;18.80;99.90;;;;;;5125598;27;20526;-61
2023/03/15 10:12:11;;;;;;;35.78;11.15;;;18.70;99.90;;;;;;5127420;27;20153;-62
2023/03/15 10:14:57;;;;;;;33.63;9.25;;;18.60;99.90;;;;;;5118165;27;20504;-62
2023/03/15 10:17:35;;;;;;;34.42;10.07;;;18.50;99.90;;;;;;5128720;27;20071;-62
2023/03/15 10:20:34;;;;;;;28.10;8.13;;;18.50;99.90;;;;;;5128132;27;20078;-61
2023/03/15 10:23:19;;;;;;;34.13;8.10;;;18.50;99.90;;;;;;5130491;27;20062;-62
2023/03/15 10:25:48;;;;;;;26.60;7.75;;;18.40;99.90;;;;;;5127689;27;20083;-62
2023/03/15 10:28:26;;;;;;;27.90;6.70;;;18.10;99.90;;;;;;5127596;27;20071;-62
2023/03/15 10:30:55;;;;;;;25.77;6.60;;;17.90;99.90;;;;;;5123891;27;20115;-60
2023/03/15 10:33:28;;;;;;;27.80;7.05;;;17.90;99.90;;;;;;5128042;28;20075;-63
2023/03/15 10:35:55;;;;;;;28.15;8.27;;;18.10;99.90;;;;;;5127721;27;21568;-64
2023/03/15 10:38:23;;;;;;;20.05;6.93;;;17.90;99.90;;;;;;5127462;27;20081;-63
2023/03/15 10:40:56;;;;;;;28.35;7.35;;;17.70;99.90;;;;;;5126947;27;20202;-63
2023/03/15 10:43:34;;;;;;;19.42;5.85;;;17.70;99.90;;;;;;5126345;27;20067;-64
2023/03/15 10:46:02;;;;;;;22.77;5.57;;;17.60;99.90;;;;;;5128613;27;20075;-63
2023/03/15 10:48:30;;;;;;;20.00;5.57;;;17.60;99.90;;;;;;5129186;27;20104;-64
2023/03/15 10:51:02;;;;;;;24.38;6.40;;;17.60;99.90;;;;;;5128675;27;20087;-63
2023/03/15 10:53:28;;;;;;;20.25;5.38;;;17.70;99.90;;;;;;5126802;27;20097;-63
2023/03/15 10:56:21;;;;;;;18.05;5.30;;;17.60;99.90;;;;;;5108891;28;20434;-62
2023/03/15 10:58:50;;;;;;;20.75;4.68;;;17.50;99.90;;;;;;5125131;27;20074;-62
2023/03/15 11:01:27;;;;;;;18.58;5.80;;;17.40;99.90;;;;;;5130146;27;20135;-62
2023/03/15 11:04:14;;;;;;;27.02;6.35;;;17.40;99.90;;;;;;5132486;27;20153;-63
2023/03/15 11:06:58;;;;;;;20.20;5.50;;;17.50;99.90;;;;;;5134113;27;20086;-64
2023/03/15 11:09:26;;;;;;;15.68;4.43;;;17.50;99.90;;;;;;5130766;27;20119;-62
2023/03/15 11:12:03;;;;;;;18.05;4.55;;;17.40;99.90;;;;;;5131392;27;20103;-62
2023/03/15 11:14:48;;;;;;;;;;;17.40;99.90;;;;;;5130750;27;20176;-62
2023/03/15 11:17:18;;;;;;;16.48;5.63;;;17.40;99.90;;;;;;5131259;27;19970;-64
2023/03/15 11:19:55;;;;;;;17.02;6.13;;;17.50;99.90;;;;;;5130855;27;20094;-64
2023/03/15 11:22:23;;;;;;;20.40;6.78;;;17.50;99.90;;;;;;5132784;27;20075;-64
2023/03/15 11:24:49;;;;;;;24.40;8.15;;;17.40;99.90;;;;;;5131411;27;20082;-64
2023/03/15 11:27:18;;;;;;;16.80;6.78;;;17.50;99.90;;;;;;5132688;27;20074;-63
2023/03/15 11:29:51;;;;;;;19.80;6.60;;;17.40;99.90;;;;;;5127505;27;20072;-64
2023/03/15 11:32:26;;;;;;;15.05;5.57;;;17.40;99.90;;;;;;5130377;27;20074;-63
2023/03/15 11:35:06;;;;;;;13.45;4.80;;;17.50;99.90;;;;;;5132530;27;20083;-63
2023/03/15 11:37:46;;;;;;;15.98;5.53;;;17.50;99.90;;;;;;5130686;27;20101;-63
2023/03/15 11:40:16;;;;;;;15.85;6.13;;;17.30;99.90;;;;;;5131403;27;20109;-63
2023/03/15 11:42:57;;;;;;;13.02;4.82;;;17.30;99.90;;;;;;5131342;27;20079;-64
2023/03/15 11:45:28;;;;;;;14.05;4.57;;;17.30;99.90;;;;;;5130679;27;20072;-63
2023/03/15 11:47:58;;;;;;;10.35;3.75;;;17.40;99.90;;;;;;5130453;27;20067;-63
2023/03/15 11:50:25;;;;;;;15.77;4.90;;;17.30;99.90;;;;;;5131480;27;20071;-62
2023/03/15 11:52:52;;;;;;;22.33;7.10;;;17.20;99.90;;;;;;5130498;27;20119;-63
2023/03/15 11:55:27;;;;;;;15.77;6.55;;;17.20;99.90;;;;;;5132075;27;20091;-63
2023/03/15 11:57:56;;;;;;;17.25;5.80;;;17.10;99.90;;;;;;5129915;27;20111;-62
2023/03/15 12:00:34;;;;;;;11.57;3.97;;;17.20;99.90;;;;;;5129987;27;20193;-63
2023/03/15 12:03:29;;;;;;;13.82;4.38;;;17.20;99.90;;;;;;5132760;27;20134;-62
2023/03/15 12:06:11;;;;;;;13.57;5.72;;;17.20;99.90;;;;;;5130265;27;20070;-62
2023/03/15 12:08:44;;;;;;;15.77;5.13;;;17.10;99.90;;;;;;5131662;27;20127;-62
2023/03/15 12:11:33;;;;;;;22.23;3.95;;;17.10;99.90;;;;;;5130025;27;20070;-62
2023/03/15 12:13:59;;;;;;;14.32;3.72;;;17.10;99.90;;;;;;5129997;27;20083;-63
2023/03/15 12:16:33;;;;;;;10.38;3.28;;;17.10;99.90;;;;;;5130997;27;20127;-63
2023/03/15 12:19:15;;;;;;;9.95;3.22;;;17.10;99.90;;;;;;5130469;27;20594;-63
2023/03/15 12:21:48;;;;;;;18.75;4.07;;;17.00;99.90;;;;;;5129551;27;20086;-62
2023/03/15 12:24:26;;;;;;;13.63;3.15;;;17.20;99.90;;;;;;5131913;27;20074;-63
2023/03/15 12:27:02;;;;;;;14.68;3.97;;;17.20;99.90;;;;;;5131052;27;20062;-64
2023/03/15 12:29:31;;;;;;;11.82;3.20;;;17.10;99.90;;;;;;5131695;27;20131;-62
2023/03/15 12:32:19;;;;;;;9.70;2.92;;;17.30;99.90;;;;;;5127596;27;20450;-63
2023/03/15 12:34:50;;;;;;;10.27;3.72;;;17.40;99.90;;;;;;5129251;27;20086;-64
2023/03/15 12:37:24;;;;;;;10.82;3.05;;;17.30;99.90;;;;;;5129208;27;20058;-63
2023/03/15 12:40:21;;;;;;;9.23;3.00;;;17.30;99.90;;;;;;5128250;27;20155;-63
2023/03/15 12:42:47;;;;;;;11.87;2.97;;;17.40;99.90;;;;;;5129979;27;20522;-65
2023/03/15 12:45:16;;;;;;;;;;;17.40;99.90;;;;;;5129669;27;20067;-62
2023/03/15 12:47:49;;;;;;;10.68;2.92;;;17.40;99.90;;;;;;5129322;27;19990;-63
2023/03/15 12:50:34;;;;;;;11.13;3.22;;;17.40;99.90;;;;;;5128398;27;20071;-63